Time;durP1;ratioP1;P1;durP2;ratioP2;P2;SDS_P1;SDS_P2;PMS_P1;PMS_P2;Temp;Humidity;BMP_temperature;BMP_pressure;BME280_temperature;BME280_humidity;BME280_pressure;Samples;Min_cycle;Max_cycle;Signal;HPM_P1;HPM_P2
2022/07/18 00:00:36;;;;;;;5.78;3.10;;;22.00;75.10;;;;;;4982894;28;20049;-84
2022/07/18 00:03:02;;;;;;;4.57;3.25;;;22.00;75.00;;;;;;4956391;28;20057;-84
2022/07/18 00:05:27;;;;;;;5.93;3.50;;;22.00;75.00;;;;;;4972286;28;20026;-84
2022/07/18 00:07:53;;;;;;;6.03;3.42;;;22.00;75.00;;;;;;4988231;28;20031;-84
2022/07/18 00:10:19;;;;;;;3.90;2.80;;;22.10;75.00;;;;;;5004856;28;20467;-84
2022/07/18 00:12:45;;;;;;;4.25;3.40;;;22.00;75.00;;;;;;5008912;28;20026;-84
2022/07/18 00:15:11;;;;;;;4.78;2.95;;;22.00;75.00;;;;;;5008707;28;20038;-84
2022/07/18 00:17:38;;;;;;;3.55;2.70;;;22.00;75.10;;;;;;5008861;28;20409;-84
2022/07/18 00:20:07;;;;;;;4.03;2.92;;;22.00;75.20;;;;;;5007868;28;20141;-84
2022/07/18 00:22:33;;;;;;;5.25;3.42;;;22.00;75.40;;;;;;5006594;28;20064;-84
2022/07/18 00:24:59;;;;;;;3.85;2.78;;;21.90;75.40;;;;;;5007122;28;20084;-83
2022/07/18 00:27:25;;;;;;;5.20;3.20;;;22.00;75.50;;;;;;4990391;28;20125;-83
2022/07/18 00:29:50;;;;;;;4.43;2.80;;;22.00;75.60;;;;;;4990805;28;20144;-83
2022/07/18 00:32:17;;;;;;;3.70;2.75;;;22.00;75.50;;;;;;5007007;28;20030;-83
2022/07/18 00:34:43;;;;;;;6.65;3.28;;;22.00;75.40;;;;;;5007769;28;20120;-84
2022/07/18 00:37:09;;;;;;;3.35;2.80;;;22.00;75.40;;;;;;4990490;28;20575;-83
2022/07/18 00:39:35;;;;;;;7.43;3.03;;;21.90;75.40;;;;;;4990132;28;20459;-84
2022/07/18 00:42:02;;;;;;;5.18;2.78;;;21.90;75.50;;;;;;4990009;28;20380;-85
2022/07/18 00:44:29;;;;;;;5.57;3.05;;;21.90;75.50;;;;;;5006505;28;20427;-83
2022/07/18 00:46:58;;;;;;;3.90;3.03;;;21.90;75.60;;;;;;5005838;28;20129;-83
2022/07/18 00:49:25;;;;;;;3.65;2.97;;;21.90;75.70;;;;;;5007449;28;20080;-84
2022/07/18 00:51:51;;;;;;;3.47;2.83;;;21.90;75.60;;;;;;5007867;28;20076;-83
2022/07/18 00:54:17;;;;;;;3.65;3.00;;;21.90;75.90;;;;;;5007657;28;20038;-83
2022/07/18 00:56:45;;;;;;;3.25;2.65;;;21.90;75.50;;;;;;4989537;28;20042;-82
2022/07/18 00:59:12;;;;;;;4.95;2.58;;;21.90;75.40;;;;;;5006976;28;20065;-82
2022/07/18 01:01:47;;;;;;;4.80;2.90;;;21.90;75.30;;;;;;5007705;28;20030;-82
2022/07/18 01:04:14;;;;;;;;;;;21.90;75.30;;;;;;5005563;28;20033;-82
2022/07/18 01:06:41;;;;;;;3.88;3.10;;;21.90;75.40;;;;;;5007563;28;19921;-83
2022/07/18 01:09:07;;;;;;;3.60;2.70;;;21.90;75.40;;;;;;5007623;28;20055;-83
2022/07/18 01:11:34;;;;;;;3.30;2.83;;;21.90;75.40;;;;;;5006091;28;20026;-82
2022/07/18 01:14:03;;;;;;;4.65;2.85;;;21.80;75.30;;;;;;4990055;28;20045;-82
2022/07/18 01:16:29;;;;;;;3.45;2.78;;;21.80;75.40;;;;;;4989064;28;20496;-83
2022/07/18 01:18:55;;;;;;;5.55;3.40;;;21.90;75.50;;;;;;5005489;28;20073;-82
2022/07/18 01:21:22;;;;;;;3.10;2.40;;;21.90;75.50;;;;;;5007423;28;20042;-83
2022/07/18 01:23:48;;;;;;;4.03;3.15;;;21.80;75.40;;;;;;5007258;28;20088;-82
2022/07/18 01:26:15;;;;;;;4.97;2.70;;;21.80;75.40;;;;;;4989783;28;20026;-82
2022/07/18 01:28:41;;;;;;;4.28;2.63;;;21.80;75.40;;;;;;4954803;28;20034;-82
2022/07/18 01:31:08;;;;;;;6.38;3.33;;;21.80;75.40;;;;;;4959480;28;20644;-83
2022/07/18 01:33:34;;;;;;;3.45;2.88;;;21.80;75.50;;;;;;4986988;28;20129;-82
2022/07/18 01:36:02;;;;;;;4.70;2.88;;;21.80;75.60;;;;;;4985608;28;20031;-83
2022/07/18 01:38:28;;;;;;;3.97;2.83;;;21.80;75.80;;;;;;4989293;28;20073;-82
2022/07/18 01:40:55;;;;;;;5.32;3.25;;;21.70;75.70;;;;;;4989704;28;21118;-83
2022/07/18 01:43:22;;;;;;;4.75;2.97;;;21.70;75.60;;;;;;4989067;28;20515;-84
2022/07/18 01:45:48;;;;;;;4.15;2.72;;;21.70;75.60;;;;;;5005039;28;20444;-84
2022/07/18 01:48:15;;;;;;;4.15;2.85;;;21.70;75.60;;;;;;5005491;28;20156;-85
2022/07/18 01:50:41;;;;;;;4.80;2.92;;;21.70;75.60;;;;;;5007116;28;20030;-84
2022/07/18 01:53:07;;;;;;;3.30;2.72;;;21.70;75.60;;;;;;5007498;28;20037;-85
2022/07/18 01:55:33;;;;;;;3.40;2.97;;;21.70;75.40;;;;;;5005123;28;20525;-85
2022/07/18 01:57:59;;;;;;;5.70;2.83;;;21.70;75.40;;;;;;5005911;28;20033;-84
2022/07/18 02:00:25;;;;;;;4.78;3.20;;;21.70;74.90;;;;;;5006880;28;20053;-85
2022/07/18 02:02:51;;;;;;;4.80;2.90;;;21.60;75.00;;;;;;5005265;28;20042;-84
2022/07/18 02:05:17;;;;;;;3.75;2.97;;;21.60;75.10;;;;;;5005580;28;20392;-85
2022/07/18 02:07:44;;;;;;;5.93;3.15;;;21.60;75.20;;;;;;5006374;28;20034;-85
2022/07/18 02:10:19;;;;;;;3.63;2.90;;;21.60;75.40;;;;;;4988986;28;20041;-84
2022/07/18 02:12:45;;;;;;;3.15;2.85;;;21.60;75.60;;;;;;4988735;28;20065;-84
2022/07/18 02:15:14;;;;;;;4.45;2.75;;;21.60;75.90;;;;;;4982520;28;20039;-84
2022/07/18 02:17:40;;;;;;;4.78;3.20;;;21.60;76.00;;;;;;4995883;28;20108;-83
2022/07/18 02:20:09;;;;;;;4.93;2.80;;;21.60;76.00;;;;;;4973157;28;20038;-84
2022/07/18 02:22:35;;;;;;;5.40;2.85;;;21.60;76.10;;;;;;5004832;28;20030;-85
2022/07/18 02:25:01;;;;;;;3.35;2.78;;;21.60;75.90;;;;;;4987964;28;20045;-85
2022/07/18 02:27:27;;;;;;;5.75;3.13;;;21.60;75.90;;;;;;4987330;28;20034;-85
2022/07/18 02:29:53;;;;;;;3.85;2.53;;;21.60;76.10;;;;;;5006696;28;20161;-85
2022/07/18 02:32:19;;;;;;;5.95;3.38;;;21.60;76.00;;;;;;4988617;28;20512;-85
2022/07/18 02:34:46;;;;;;;5.78;3.15;;;21.60;75.50;;;;;;5005455;28;20038;-85
2022/07/18 02:37:12;;;;;;;6.55;3.33;;;21.50;75.30;;;;;;5004640;28;20065;-85
2022/07/18 02:39:38;;;;;;;4.63;3.10;;;21.60;75.20;;;;;;4988248;28;20436;-84
2022/07/18 02:42:04;;;;;;;5.10;3.08;;;21.60;75.20;;;;;;5005079;28;20188;-84
2022/07/18 02:44:30;;;;;;;7.03;3.42;;;21.50;75.10;;;;;;5006348;28;20040;-83
2022/07/18 02:46:56;;;;;;;8.10;3.30;;;21.60;75.30;;;;;;5005377;28;20033;-83
2022/07/18 02:49:28;;;;;;;3.25;2.88;;;21.50;74.90;;;;;;5004688;28;20447;-83
2022/07/18 02:52:00;;;;;;;4.38;2.83;;;21.50;74.90;;;;;;5006301;28;20038;-83
2022/07/18 02:54:28;;;;;;;4.85;3.53;;;21.50;75.30;;;;;;4999682;28;20033;-83
2022/07/18 02:56:54;;;;;;;5.30;2.83;;;21.50;75.20;;;;;;4987976;28;20439;-84
2022/07/18 02:59:21;;;;;;;4.63;3.03;;;21.50;75.90;;;;;;5006038;28;20034;-83
2022/07/18 03:01:48;;;;;;;3.25;2.70;;;21.50;75.20;;;;;;5006195;28;20037;-83
2022/07/18 03:04:15;;;;;;;4.85;3.03;;;21.50;75.60;;;;;;5004258;28;20395;-82
2022/07/18 03:06:41;;;;;;;5.55;3.00;;;21.50;75.70;;;;;;4972638;28;20036;-82
2022/07/18 03:09:08;;;;;;;5.68;2.80;;;21.50;75.70;;;;;;5006311;28;20026;-83
2022/07/18 03:11:34;;;;;;;7.43;3.22;;;21.50;75.60;;;;;;5004450;28;20400;-82
2022/07/18 03:13:59;;;;;;;3.83;2.75;;;21.40;75.70;;;;;;5004506;28;20551;-82
2022/07/18 03:16:26;;;;;;;5.57;3.25;;;21.40;75.60;;;;;;5009512;28;20124;-84
2022/07/18 03:18:51;;;;;;;6.18;3.00;;;21.40;75.20;;;;;;4991549;28;20038;-82
2022/07/18 03:21:17;;;;;;;5.32;3.05;;;21.40;75.50;;;;;;4991579;28;20088;-82
2022/07/18 03:23:43;;;;;;;5.80;3.17;;;21.40;75.60;;;;;;4992153;28;20038;-84
2022/07/18 03:26:09;;;;;;;4.93;2.80;;;21.40;75.80;;;;;;5008450;28;20065;-84
2022/07/18 03:28:35;;;;;;;3.17;2.53;;;21.40;75.70;;;;;;5007872;28;20152;-83
2022/07/18 03:31:01;;;;;;;5.82;2.58;;;21.40;75.80;;;;;;5007547;28;20038;-83
2022/07/18 03:33:27;;;;;;;4.35;2.67;;;21.40;75.80;;;;;;4990013;28;20049;-84
2022/07/18 03:35:53;;;;;;;5.82;2.92;;;21.40;75.50;;;;;;5008720;28;20104;-84
2022/07/18 03:38:19;;;;;;;4.05;2.65;;;21.40;75.70;;;;;;5008396;28;20092;-84
2022/07/18 03:40:45;;;;;;;3.75;2.63;;;21.40;75.70;;;;;;5019248;28;20084;-85
2022/07/18 03:43:11;;;;;;;4.07;2.35;;;21.40;75.60;;;;;;5009730;28;20041;-84
2022/07/18 03:45:37;;;;;;;4.85;2.88;;;21.40;75.80;;;;;;5008516;28;20030;-84
2022/07/18 03:48:03;;;;;;;3.58;2.60;;;21.40;75.50;;;;;;4989066;28;20045;-85
2022/07/18 03:50:29;;;;;;;3.58;2.53;;;21.40;75.50;;;;;;5007685;28;20029;-84
2022/07/18 03:52:55;;;;;;;4.15;2.40;;;21.40;75.10;;;;;;5009360;28;20476;-84
2022/07/18 03:55:21;;;;;;;3.85;2.80;;;21.40;75.20;;;;;;5007200;28;20401;-84
2022/07/18 03:57:48;;;;;;;6.18;3.95;;;21.40;75.60;;;;;;5008930;28;20034;-84
2022/07/18 04:00:14;;;;;;;5.30;3.45;;;21.40;75.80;;;;;;5006355;28;20048;-83
2022/07/18 04:02:45;;;;;;;4.35;3.08;;;21.40;75.60;;;;;;5007855;28;20037;-84
2022/07/18 04:05:13;;;;;;;2.92;2.40;;;21.40;75.80;;;;;;4975488;28;20445;-84
2022/07/18 04:07:40;;;;;;;5.28;2.97;;;21.40;75.80;;;;;;4974783;28;20129;-85
2022/07/18 04:10:07;;;;;;;3.33;2.53;;;21.40;75.80;;;;;;5004193;28;20030;-85
2022/07/18 04:12:34;;;;;;;3.90;2.67;;;21.50;75.50;;;;;;4971034;28;20130;-85
2022/07/18 04:15:00;;;;;;;4.80;2.33;;;21.40;75.60;;;;;;4970337;28;20034;-84
2022/07/18 04:17:26;;;;;;;3.50;2.53;;;21.40;75.30;;;;;;4971326;28;20033;-84
2022/07/18 04:19:52;;;;;;;5.50;4.57;;;21.40;75.60;;;;;;4989360;28;21402;-84
2022/07/18 04:22:18;;;;;;;5.72;3.78;;;21.40;75.80;;;;;;5003337;28;20117;-83
2022/07/18 04:24:44;;;;;;;6.20;3.60;;;21.50;75.80;;;;;;4999202;28;20493;-83
2022/07/18 04:27:10;;;;;;;5.15;3.08;;;21.50;75.60;;;;;;5007847;28;20149;-83
2022/07/18 04:29:37;;;;;;;3.28;2.70;;;21.50;75.30;;;;;;5007751;28;20528;-84
2022/07/18 04:32:03;;;;;;;3.70;2.65;;;21.50;75.40;;;;;;5008920;28;20034;-84
2022/07/18 04:34:29;;;;;;;4.35;2.53;;;21.40;75.50;;;;;;4990566;28;20571;-84
2022/07/18 04:36:55;;;;;;;3.95;2.72;;;21.50;75.70;;;;;;5005581;28;20070;-84
2022/07/18 04:39:21;;;;;;;3.67;2.72;;;21.50;75.80;;;;;;5008508;28;20058;-85
2022/07/18 04:41:47;;;;;;;4.78;3.08;;;21.50;75.90;;;;;;5006960;28;20508;-84
2022/07/18 04:44:13;;;;;;;6.00;2.83;;;21.50;75.80;;;;;;5005562;28;20470;-84
2022/07/18 04:46:39;;;;;;;3.60;2.47;;;21.50;75.50;;;;;;5006219;28;20050;-84
2022/07/18 04:49:05;;;;;;;3.08;2.58;;;21.50;76.00;;;;;;5006120;28;20042;-85
2022/07/18 04:51:32;;;;;;;4.40;2.55;;;21.50;76.00;;;;;;5008066;28;20753;-85
2022/07/18 04:53:58;;;;;;;4.03;3.00;;;21.50;76.10;;;;;;5000538;28;20121;-85
2022/07/18 04:56:24;;;;;;;6.65;2.80;;;21.60;76.00;;;;;;5009045;28;20412;-84
2022/07/18 04:58:50;;;;;;;5.38;3.22;;;21.60;75.80;;;;;;5007827;28;20089;-83
2022/07/18 05:01:16;;;;;;;5.07;3.20;;;21.60;75.40;;;;;;5006992;28;20046;-85
2022/07/18 05:03:42;;;;;;;3.85;3.10;;;21.60;75.20;;;;;;5007229;28;20033;-83
2022/07/18 05:06:08;;;;;;;5.95;3.22;;;21.60;75.20;;;;;;5007096;28;20038;-84
2022/07/18 05:08:34;;;;;;;3.78;3.15;;;21.60;75.40;;;;;;5005823;28;20124;-85
2022/07/18 05:11:00;;;;;;;5.75;3.40;;;21.60;75.40;;;;;;5009311;28;20165;-85
2022/07/18 05:13:26;;;;;;;5.45;4.25;;;21.60;75.40;;;;;;4988963;28;20488;-85
2022/07/18 05:15:52;;;;;;;6.07;4.13;;;21.60;75.30;;;;;;5005653;28;20295;-83
2022/07/18 05:18:18;;;;;;;4.40;4.00;;;21.60;75.40;;;;;;5005728;28;20057;-83
2022/07/18 05:20:44;;;;;;;5.47;3.70;;;21.50;75.60;;;;;;5004673;28;20042;-84
2022/07/18 05:23:13;;;;;;;5.43;3.50;;;21.50;75.60;;;;;;5014149;28;20045;-83
2022/07/18 05:25:39;;;;;;;5.85;4.00;;;21.50;75.50;;;;;;5006751;28;20040;-83
2022/07/18 05:28:05;;;;;;;5.82;4.10;;;21.60;75.30;;;;;;5005941;28;20128;-83
2022/07/18 05:30:31;;;;;;;7.40;4.25;;;21.60;75.40;;;;;;5005664;28;21025;-83
2022/07/18 05:32:57;;;;;;;6.93;4.85;;;21.60;75.50;;;;;;5000923;28;20409;-82
2022/07/18 05:35:23;;;;;;;9.70;6.18;;;21.60;74.80;;;;;;4969609;28;20096;-83
2022/07/18 05:37:49;;;;;;;11.45;5.35;;;21.60;74.50;;;;;;4985076;28;20034;-81
2022/07/18 05:40:16;;;;;;;6.78;5.57;;;21.50;74.40;;;;;;5002564;28;20034;-83
2022/07/18 05:42:42;;;;;;;6.38;4.63;;;21.50;73.80;;;;;;4986086;28;20976;-83
2022/07/18 05:45:09;;;;;;;8.98;5.40;;;21.50;73.40;;;;;;4969133;28;20640;-83
2022/07/18 05:47:35;;;;;;;6.35;4.75;;;21.50;73.60;;;;;;4986855;28;20044;-84
2022/07/18 05:50:01;;;;;;;6.47;4.50;;;21.50;73.50;;;;;;4986823;28;20030;-85
2022/07/18 05:52:27;;;;;;;5.68;4.00;;;21.50;73.80;;;;;;4987532;28;20066;-84
2022/07/18 05:54:53;;;;;;;4.88;3.75;;;21.60;74.00;;;;;;4986288;28;20074;-83
2022/07/18 05:57:18;;;;;;;6.40;3.40;;;21.60;73.80;;;;;;4969462;28;20382;-84
2022/07/18 05:59:44;;;;;;;9.98;3.17;;;21.50;73.30;;;;;;4986650;28;20073;-83
2022/07/18 06:02:10;;;;;;;4.65;2.50;;;21.50;72.50;;;;;;4986191;28;20026;-82
2022/07/18 06:04:36;;;;;;;4.18;2.55;;;21.50;72.80;;;;;;4986824;28;20034;-90
2022/07/18 06:07:03;;;;;;;3.70;2.30;;;21.60;72.20;;;;;;4986598;28;20071;-88
2022/07/18 06:09:30;;;;;;;3.95;2.55;;;21.60;72.20;;;;;;4986599;28;20037;-88
2022/07/18 06:11:59;;;;;;;3.70;2.40;;;21.60;72.00;;;;;;4989667;28;20034;-91
2022/07/18 06:14:27;;;;;;;4.60;2.55;;;21.60;72.00;;;;;;4976588;28;20014;-91
2022/07/18 06:16:53;;;;;;;5.13;2.60;;;21.70;71.80;;;;;;4991597;28;20330;-96
2022/07/18 06:19:19;;;;;;;4.03;2.60;;;21.70;71.90;;;;;;4974952;28;20034;-90
2022/07/18 06:21:46;;;;;;;4.50;2.47;;;21.70;71.80;;;;;;4971043;28;20092;-90
2022/07/18 06:24:12;;;;;;;4.45;2.50;;;21.80;72.00;;;;;;4954139;28;20116;-92
2022/07/18 06:26:38;;;;;;;4.32;1.92;;;21.80;72.40;;;;;;4971733;28;20485;-92
2022/07/18 06:29:04;;;;;;;3.47;1.80;;;21.70;72.30;;;;;;4975505;28;20033;-86
2022/07/18 06:31:30;;;;;;;5.28;2.17;;;21.70;72.00;;;;;;4970479;28;20046;-87
2022/07/18 06:33:56;;;;;;;2.95;1.75;;;21.60;71.80;;;;;;4987346;28;20034;-88
2022/07/18 06:36:23;;;;;;;4.60;1.83;;;21.60;72.30;;;;;;4986257;28;20081;-84
2022/07/18 06:38:52;;;;;;;6.93;2.00;;;21.60;73.20;;;;;;4984609;28;20038;-81
2022/07/18 06:41:19;;;;;;;2.45;1.98;;;21.60;73.80;;;;;;4981678;28;20053;-83
2022/07/18 06:43:48;;;;;;;6.25;2.00;;;21.60;74.50;;;;;;4969423;28;20042;-84
2022/07/18 06:46:14;;;;;;;5.72;2.10;;;21.70;75.40;;;;;;4984807;28;20113;-79
2022/07/18 06:48:40;;;;;;;7.15;1.90;;;21.70;75.60;;;;;;4992846;28;20497;-81
2022/07/18 06:51:08;;;;;;;4.45;2.17;;;21.70;75.60;;;;;;4977306;28;20030;-88
2022/07/18 06:53:34;;;;;;;9.10;2.20;;;21.80;76.10;;;;;;4969097;28;20036;-82
2022/07/18 06:56:02;;;;;;;2.33;1.50;;;21.80;75.00;;;;;;4984055;28;20161;-93
2022/07/18 06:58:30;;;;;;;7.60;1.90;;;21.90;76.10;;;;;;5000890;28;20140;-89
2022/07/18 07:00:57;;;;;;;4.47;2.17;;;22.10;75.40;;;;;;4993474;28;20046;-90
2022/07/18 07:03:23;;;;;;;2.97;1.88;;;22.10;74.70;;;;;;5003938;28;20435;-89
2022/07/18 07:05:48;;;;;;;5.47;2.20;;;22.20;74.80;;;;;;5016562;28;20088;-92
2022/07/18 07:08:14;;;;;;;7.93;2.08;;;22.20;74.50;;;;;;5016172;28;20030;-88
2022/07/18 07:10:41;;;;;;;4.85;2.38;;;22.30;74.80;;;;;;4980514;28;20034;-88
2022/07/18 07:13:07;;;;;;;7.65;2.03;;;22.30;73.90;;;;;;5014679;28;20061;-91
2022/07/18 07:15:33;;;;;;;3.42;1.67;;;22.40;74.10;;;;;;5012858;28;20065;-80
2022/07/18 07:17:58;;;;;;;4.53;1.75;;;22.40;73.70;;;;;;4975631;28;20034;-81
2022/07/18 07:20:24;;;;;;;4.20;1.60;;;22.40;73.90;;;;;;5009688;28;20133;-81
2022/07/18 07:22:56;;;;;;;2.38;1.60;;;22.50;74.50;;;;;;5008755;28;20022;-80
2022/07/18 07:25:25;;;;;;;3.47;2.00;;;22.50;73.50;;;;;;5009550;28;20513;-80
2022/07/18 07:27:52;;;;;;;4.97;2.15;;;22.50;73.60;;;;;;5008216;28;20038;-80
2022/07/18 07:30:18;;;;;;;2.72;1.80;;;22.60;73.50;;;;;;5011136;28;20508;-81
2022/07/18 07:32:45;;;;;;;4.47;2.00;;;22.70;73.40;;;;;;5014243;28;20057;-81
2022/07/18 07:35:13;;;;;;;4.30;2.10;;;22.70;73.00;;;;;;5014878;28;20033;-84
2022/07/18 07:37:48;;;;;;;3.50;1.90;;;22.80;72.50;;;;;;5014363;28;20444;-81
2022/07/18 07:40:15;;;;;;;2.38;1.50;;;22.80;72.20;;;;;;5009520;28;20042;-81
2022/07/18 07:42:41;;;;;;;3.13;1.65;;;22.80;71.50;;;;;;4991878;28;20045;-81
2022/07/18 07:45:09;;;;;;;3.42;1.67;;;22.80;71.30;;;;;;5009417;28;20038;-81
2022/07/18 07:47:37;;;;;;;3.03;1.80;;;22.90;71.20;;;;;;5012265;28;20034;-79
2022/07/18 07:50:04;;;;;;;5.40;1.65;;;22.90;71.40;;;;;;5011851;28;20512;-81
2022/07/18 07:52:31;;;;;;;4.07;1.40;;;22.90;72.00;;;;;;5013435;28;20080;-80
2022/07/18 07:54:57;;;;;;;1.92;1.60;;;23.10;72.00;;;;;;5012092;28;20092;-81
2022/07/18 07:57:23;;;;;;;4.18;1.70;;;23.20;72.20;;;;;;5014446;28;20042;-82
2022/07/18 07:59:49;;;;;;;2.03;1.25;;;23.20;72.40;;;;;;5012720;28;20065;-80
2022/07/18 08:02:16;;;;;;;4.28;1.45;;;23.40;72.40;;;;;;5015895;28;20076;-81
2022/07/18 08:04:42;;;;;;;2.97;1.80;;;23.60;71.70;;;;;;4991311;28;20099;-79
2022/07/18 08:07:09;;;;;;;3.60;1.50;;;23.70;71.20;;;;;;5013524;28;20711;-79
2022/07/18 08:09:35;;;;;;;1.30;1.00;;;23.80;71.50;;;;;;5012499;28;20044;-77
2022/07/18 08:12:00;;;;;;;2.55;1.40;;;23.90;71.20;;;;;;5002020;28;20389;-78
2022/07/18 08:14:26;;;;;;;2.95;1.52;;;24.00;72.00;;;;;;4992498;28;20081;-79
2022/07/18 08:16:52;;;;;;;2.47;1.42;;;24.10;71.70;;;;;;5012666;28;20038;-79
2022/07/18 08:19:18;;;;;;;2.38;1.38;;;24.10;72.50;;;;;;5013574;28;20493;-78
2022/07/18 08:21:44;;;;;;;1.77;1.50;;;24.20;73.20;;;;;;5014854;28;20586;-83
2022/07/18 08:24:10;;;;;;;3.97;1.80;;;24.20;69.50;;;;;;4995930;28;20096;-84
2022/07/18 08:26:38;;;;;;;2.83;1.50;;;24.20;66.20;;;;;;4989131;28;20055;-86
2022/07/18 08:29:06;;;;;;;2.42;1.55;;;24.00;65.10;;;;;;4996607;28;20026;-89
2022/07/18 08:31:33;;;;;;;3.28;1.30;;;24.10;66.60;;;;;;5013529;28;20041;-87
2022/07/18 08:33:59;;;;;;;3.45;1.27;;;24.10;65.10;;;;;;5012690;28;20125;-88
2022/07/18 08:36:26;;;;;;;1.67;1.17;;;24.00;62.80;;;;;;5010390;28;20072;-87
2022/07/18 08:38:52;;;;;;;1.25;1.05;;;24.10;65.50;;;;;;5012990;28;20711;-88
2022/07/18 08:41:18;;;;;;;3.15;1.35;;;24.20;66.20;;;;;;5013697;28;20044;-85
2022/07/18 08:43:48;;;;;;;3.63;1.20;;;24.20;67.80;;;;;;5012423;28;20070;-83
2022/07/18 08:46:20;;;;;;;1.88;1.27;;;24.20;65.30;;;;;;5012559;28;20034;-84
2022/07/18 08:48:47;;;;;;;2.17;1.23;;;24.20;66.60;;;;;;5011024;28;20501;-83
2022/07/18 08:51:13;;;;;;;3.05;1.15;;;24.30;67.50;;;;;;5012832;28;20038;-84
2022/07/18 08:53:39;;;;;;;1.45;1.20;;;24.30;68.90;;;;;;5011725;28;20038;-85
2022/07/18 08:56:05;;;;;;;3.13;1.15;;;24.30;68.50;;;;;;5012539;28;20076;-83
2022/07/18 08:58:32;;;;;;;1.63;1.17;;;24.40;70.20;;;;;;5012938;28;20057;-88
2022/07/18 09:00:58;;;;;;;3.65;1.35;;;24.30;65.90;;;;;;5009824;28;20081;-86
2022/07/18 09:03:24;;;;;;;3.47;1.30;;;24.20;62.90;;;;;;5012583;28;20132;-85
2022/07/18 09:06:11;;;;;;;3.38;1.17;;;24.10;64.70;;;;;;5018114;28;20037;-85
2022/07/18 09:08:39;;;;;;;1.35;1.00;;;24.10;63.70;;;;;;5012794;28;20025;-84
2022/07/18 09:11:11;;;;;;;1.30;1.10;;;24.20;66.20;;;;;;5011433;28;20026;-86
2022/07/18 09:13:42;;;;;;;2.05;1.10;;;24.20;67.40;;;;;;5005630;28;20518;-83
2022/07/18 09:16:13;;;;;;;2.03;1.20;;;24.30;65.80;;;;;;5007821;28;20133;-80
2022/07/18 09:18:41;;;;;;;4.88;1.42;;;24.40;64.30;;;;;;5007628;28;20420;-81
2022/07/18 09:21:20;;;;;;;8.48;1.45;;;24.30;64.50;;;;;;5006599;28;20038;-83
2022/07/18 09:23:48;;;;;;;3.72;1.10;;;24.40;64.80;;;;;;5007281;28;20168;-85
2022/07/18 09:26:36;;;;;;;6.60;1.40;;;24.10;60.60;;;;;;5007692;28;20038;-82
2022/07/18 09:29:03;;;;;;;2.25;1.48;;;24.10;62.70;;;;;;5012290;28;20053;-80
2022/07/18 09:31:29;;;;;;;3.45;1.33;;;24.10;62.60;;;;;;5008127;28;20141;-80
2022/07/18 09:34:01;;;;;;;4.07;1.30;;;23.90;62.30;;;;;;5006904;28;20041;-82
2022/07/18 09:36:28;;;;;;;1.73;1.10;;;23.70;61.00;;;;;;5006446;28;20605;-79
2022/07/18 09:38:55;;;;;;;3.28;1.13;;;23.60;61.60;;;;;;5005174;28;20042;-80
2022/07/18 09:41:30;;;;;;;4.85;1.17;;;23.40;59.80;;;;;;5006590;28;20044;-77
2022/07/18 09:43:57;;;;;;;1.85;1.00;;;23.40;61.40;;;;;;4987494;28;20049;-76
2022/07/18 09:46:23;;;;;;;1.05;0.95;;;23.20;60.00;;;;;;4969568;28;20128;-77
2022/07/18 09:49:08;;;;;;;1.30;1.00;;;23.30;60.80;;;;;;4987015;28;20035;-76
2022/07/18 09:51:34;;;;;;;1.13;0.83;;;23.30;60.00;;;;;;4988056;28;20057;-75
2022/07/18 09:54:01;;;;;;;1.13;0.98;;;23.30;62.30;;;;;;4986598;28;20482;-73
2022/07/18 09:56:30;;;;;;;1.83;1.20;;;23.40;61.90;;;;;;4986220;28;20049;-75
2022/07/18 09:58:56;;;;;;;4.47;1.48;;;23.40;61.80;;;;;;4980922;28;20432;-74
2022/07/18 10:01:23;;;;;;;2.53;1.20;;;23.30;60.60;;;;;;4981545;28;20085;-76
2022/07/18 10:03:50;;;;;;;1.65;1.05;;;23.20;60.00;;;;;;4986800;28;20045;-75
2022/07/18 10:06:18;;;;;;;2.30;1.10;;;23.30;61.40;;;;;;4986728;28;20128;-75
2022/07/18 10:08:44;;;;;;;1.02;0.88;;;23.30;59.40;;;;;;4986355;28;22415;-75
2022/07/18 10:11:10;;;;;;;2.70;0.93;;;23.10;58.60;;;;;;4986510;28;20038;-74
2022/07/18 10:13:37;;;;;;;1.75;1.15;;;23.10;59.40;;;;;;4986606;28;20304;-75
2022/07/18 10:16:04;;;;;;;1.85;0.93;;;23.20;59.70;;;;;;4986801;28;20533;-75
2022/07/18 10:18:33;;;;;;;1.30;1.05;;;23.00;59.10;;;;;;4986043;28;20683;-77
2022/07/18 10:21:10;;;;;;;1.63;1.00;;;22.80;59.30;;;;;;4996293;28;20038;-74
2022/07/18 10:23:44;;;;;;;1.95;1.08;;;22.80;59.50;;;;;;4986305;28;20026;-73
2022/07/18 10:26:16;;;;;;;2.90;1.17;;;22.70;61.10;;;;;;4990535;28;20061;-73
2022/07/18 10:29:00;;;;;;;1.90;0.88;;;22.70;60.20;;;;;;5003629;28;20108;-75
2022/07/18 10:31:31;;;;;;;1.27;1.17;;;22.60;60.00;;;;;;5006703;28;20034;-74
2022/07/18 10:34:06;;;;;;;1.00;1.00;;;22.50;60.00;;;;;;4975491;28;20040;-75
2022/07/18 10:36:53;;;;;;;1.23;1.13;;;22.50;60.10;;;;;;4999001;28;20038;-76
2022/07/18 10:39:20;;;;;;;4.95;1.50;;;22.40;61.10;;;;;;4987421;28;20508;-75
2022/07/18 10:41:46;;;;;;;1.40;1.30;;;22.60;61.20;;;;;;4989419;28;20068;-76
2022/07/18 10:44:24;;;;;;;1.83;0.90;;;22.80;61.30;;;;;;4990656;28;20560;-75
2022/07/18 10:47:03;;;;;;;1.52;1.00;;;22.90;60.70;;;;;;4971958;28;20082;-76
2022/07/18 10:49:47;;;;;;;2.00;1.13;;;22.90;60.80;;;;;;4990558;28;20125;-76
2022/07/18 10:52:28;;;;;;;3.58;1.10;;;22.90;60.50;;;;;;4989767;28;20089;-76
2022/07/18 10:55:06;;;;;;;3.10;1.42;;;22.90;60.30;;;;;;4987121;28;20420;-75
2022/07/18 10:57:33;;;;;;;3.13;1.27;;;22.90;59.20;;;;;;4989099;28;20035;-76
2022/07/18 11:00:22;;;;;;;3.05;1.40;;;22.80;59.70;;;;;;4989668;28;20053;-75
2022/07/18 11:03:04;;;;;;;0.77;0.77;;;22.70;58.80;;;;;;4984608;28;20042;-76
2022/07/18 11:05:31;;;;;;;2.60;1.20;;;22.90;60.90;;;;;;4997566;28;20034;-75
2022/07/18 11:07:57;;;;;;;2.20;1.23;;;23.00;61.60;;;;;;4989491;28;20096;-76
2022/07/18 11:10:45;;;;;;;1.42;1.10;;;23.00;59.90;;;;;;4989763;28;20038;-75
2022/07/18 11:13:43;;;;;;;3.17;1.65;;;23.10;61.00;;;;;;4987465;28;20501;-75
2022/07/18 11:16:18;;;;;;;1.20;1.10;;;23.00;59.50;;;;;;4982329;28;20030;-76
2022/07/18 11:18:44;;;;;;;;;;;23.00;60.70;;;;;;4969946;28;20511;-76
2022/07/18 11:21:26;;;;;;;2.47;1.17;;;23.00;59.70;;;;;;4987451;28;19926;-76
2022/07/18 11:23:59;;;;;;;1.90;1.25;;;23.10;60.70;;;;;;4987803;28;20035;-76
2022/07/18 11:26:26;;;;;;;2.08;1.40;;;23.20;60.50;;;;;;4988210;28;20038;-77
2022/07/18 11:29:03;;;;;;;1.73;1.00;;;23.10;59.60;;;;;;4970338;28;20031;-77
2022/07/18 11:31:30;;;;;;;6.80;1.83;;;23.10;60.90;;;;;;4986654;28;20041;-77
2022/07/18 11:33:59;;;;;;;3.15;1.52;;;23.20;61.60;;;;;;4987486;28;20034;-80
2022/07/18 11:36:31;;;;;;;3.97;1.40;;;23.20;60.90;;;;;;4987559;28;20068;-77
2022/07/18 11:39:00;;;;;;;2.83;1.38;;;23.30;60.40;;;;;;4989489;28;20072;-76
2022/07/18 11:41:26;;;;;;;5.57;2.10;;;23.30;60.10;;;;;;5007393;28;20029;-77
2022/07/18 11:43:53;;;;;;;3.95;2.05;;;23.40;61.20;;;;;;5008378;28;20613;-77
2022/07/18 11:46:25;;;;;;;4.95;2.03;;;23.40;61.70;;;;;;5008638;28;20034;-78
2022/07/18 11:49:06;;;;;;;2.80;1.52;;;23.50;61.80;;;;;;5007598;28;20084;-76
2022/07/18 11:51:40;;;;;;;5.70;1.35;;;23.60;61.20;;;;;;4990339;28;20452;-76
2022/07/18 11:54:07;;;;;;;2.08;1.33;;;23.60;61.00;;;;;;5007679;28;20385;-77
2022/07/18 11:56:44;;;;;;;2.70;1.30;;;23.70;61.30;;;;;;5007174;28;20046;-76
2022/07/18 11:59:10;;;;;;;3.80;1.50;;;23.80;61.40;;;;;;5008214;28;20034;-77
2022/07/18 12:01:36;;;;;;;3.67;1.90;;;23.80;61.80;;;;;;4986384;28;20049;-77
2022/07/18 12:04:03;;;;;;;3.88;1.45;;;23.90;61.60;;;;;;4996921;28;20038;-77
2022/07/18 12:06:29;;;;;;;3.45;1.40;;;23.90;61.50;;;;;;5013754;28;20316;-77
2022/07/18 12:09:00;;;;;;;3.28;1.40;;;23.90;61.70;;;;;;5007781;28;20088;-77
2022/07/18 12:11:26;;;;;;;2.25;1.33;;;24.00;61.70;;;;;;5006915;28;20033;-77
2022/07/18 12:14:07;;;;;;;3.45;1.40;;;24.00;61.60;;;;;;5007536;28;20040;-80
2022/07/18 12:16:39;;;;;;;3.03;1.50;;;24.10;61.20;;;;;;5005578;28;20038;-77
2022/07/18 12:19:15;;;;;;;4.50;1.45;;;24.10;61.50;;;;;;5005269;28;20041;-77
2022/07/18 12:21:41;;;;;;;2.30;1.58;;;24.10;61.70;;;;;;4989271;28;20120;-78
2022/07/18 12:24:17;;;;;;;1.67;1.30;;;24.10;60.90;;;;;;5006417;28;20072;-77
2022/07/18 12:26:43;;;;;;;2.95;1.60;;;24.10;60.70;;;;;;5006249;28;20033;-76
2022/07/18 12:29:10;;;;;;;4.05;1.50;;;24.10;61.30;;;;;;5006168;28;20420;-77
2022/07/18 12:31:45;;;;;;;3.53;1.60;;;24.10;61.10;;;;;;5005878;28;20524;-76
2022/07/18 12:34:16;;;;;;;2.85;1.50;;;24.10;61.00;;;;;;5005644;28;20038;-76
2022/07/18 12:37:02;;;;;;;3.92;1.50;;;24.10;61.10;;;;;;5005959;28;20038;-77
2022/07/18 12:39:30;;;;;;;2.13;1.45;;;24.10;61.20;;;;;;5006552;28;20038;-77
2022/07/18 12:41:57;;;;;;;2.45;1.83;;;24.10;61.00;;;;;;5006346;28;20038;-77
2022/07/18 12:44:24;;;;;;;4.18;1.63;;;24.10;61.20;;;;;;5003539;28;20100;-77
2022/07/18 12:46:50;;;;;;;2.58;1.30;;;24.10;61.20;;;;;;5006632;28;20149;-79
2022/07/18 12:49:16;;;;;;;4.25;1.75;;;24.20;61.70;;;;;;5006583;28;20038;-78
2022/07/18 12:51:43;;;;;;;20.73;3.05;;;24.20;61.90;;;;;;5006505;28;20528;-81